Cala Pula — IBID — position and weather

sailwx.info

Track history (hours):
 
Tides and Currents Weather Stations Pressure Air Temp Water Temp Dewpoint Dewpoint Depression Visibility Wind Speed Wind Dir Waves Ship Positions

Cala Pula

Last reported at 2017-May-16 05:58 UTC. Time now 2017-May-25 14:21 UTC.
Position N 35°42' W 014°18'.
Warning: this ship's position is 9 days out of date.

Length 189 m; draft 7.1 m.

Type: Ship (hazmat cat A). MMSI: 247585000.

Date/timePositionNaut miles runAvg speedWind from/ knotsBaromVisibWave heightAir tempDewpointWater temp
2017-May-16 05:58N 35°42' W 014°18'7021.3
2017-May-16 02:43N 35°46' W 012°52'3621.0
2017-May-16 01:01N 35°49' W 012°09'022.6
2017-May-16 01:00N 35°49' W 012°08'1621.5
2017-May-16 00:16N 35°50' W 011°49'621.8
2017-May-16 00:00N 35°50' W 011°42'1422.0
2017-May-15 23:22N 35°51' W 011°25'821.6
2017-May-15 23:00N 35°52' W 011°15'1121.6
2017-May-15 22:30N 35°52' W 011°02'1121.7
2017-May-15 22:00N 35°53' W 010°48'1121.5
2017-May-15 21:30N 35°53' W 010°35'1121.4
2017-May-15 21:00N 35°53' W 010°22'1121.3
2017-May-15 20:30N 35°54' W 010°09'1121.2
2017-May-15 20:00N 35°54' W 009°56'1121.2
2017-May-15 19:30N 35°55' W 009°42'1121.4
2017-May-15 19:00N 35°55' W 009°29'1121.5
2017-May-15 18:30N 35°55' W 009°16'8321.3
2017-May-15 14:35N 35°57' W 007°33'221.4
2017-May-15 14:30N 35°57' W 007°31'5721.4
2017-May-15 11:51N 35°57' W 006°21'27420.1
2017-May-14 22:13N 37°19' W 000°55'621.4
2017-May-14 21:56N 37°23' W 000°49'1820.8
2017-May-14 21:03N 37°36' W 000°32'120.9
2017-May-14 21:00N 37°36' W 000°31'3220.9
2017-May-14 19:27N 38°03' W 000°07'1921.1
2017-May-14 18:33N 38°20' E 000°04'121.2
2017-May-14 18:30N 38°21' E 000°05'8621.3
2017-May-14 14:28N 39°39' E 000°48'2121.2
2017-May-14 13:29N 39°59' E 000°56'1021.3
2017-May-14 13:00N 40°09' E 000°59'1121.2
2017-May-14 12:30N 40°20' E 001°01'1121.3
2017-May-14 12:00N 40°30' E 001°04'1121.2
2017-May-14 11:30N 40°41' E 001°07'1020.8
2017-May-14 11:01N 40°51' E 001°09'1019.2
2017-May-14 10:30N 41°00' E 001°12'195 9.9
2017-May-13 14:43N 42°20' E 005°11'2620.4
2017-May-13 13:27N 42°32' E 005°41'6719.6
2017-May-13 10:04N 43°08' E 006°58'419.3
2017-May-13 09:52N 43°10' E 007°02'719.2
2017-May-13 09:30N 43°15' E 007°09'1019.2
2017-May-13 09:00N 43°21' E 007°20'1019.1
2017-May-13 08:31N 43°27' E 007°30'918.7
2017-May-13 08:00N 43°33' E 007°40'918.5
2017-May-13 07:30N 43°38' E 007°50'918.2
2017-May-13 07:00N 43°44' E 007°60'1017.8
2017-May-13 06:27N 43°50' E 008°10'1417.3
2017-May-13 05:38N 44°02' E 008°22'216.9
2017-May-13 05:30N 44°04' E 008°24'815.6
2017-May-13 05:00N 44°11' E 008°29'611.2
2017-May-13 04:30N 44°16' E 008°28'1 1.3
2017-May-13 04:00N 44°16' E 008°27'0 0.0
2017-May-13 03:30N 44°16' E 008°27'0 0.0
2017-May-13 03:00N 44°16' E 008°27'0 0.0
2017-May-13 02:30N 44°16' E 008°27'0 0.0
2017-May-13 02:00N 44°16' E 008°27'0 0.0
2017-May-13 01:30N 44°16' E 008°27'0 0.0
2017-May-13 01:00N 44°16' E 008°27'0 0.0
2017-May-13 00:30N 44°16' E 008°27'0 0.0
2017-May-13 00:00N 44°16' E 008°27'0 0.0
2017-May-12 23:30N 44°16' E 008°27'0 0.0
2017-May-12 23:00N 44°16' E 008°27'0 0.0
2017-May-12 22:30N 44°16' E 008°27'0 0.0
2017-May-12 22:00N 44°16' E 008°27'0 0.0
2017-May-12 21:30N 44°16' E 008°27'0 0.0
2017-May-12 21:00N 44°16' E 008°27'0 0.0
2017-May-12 20:30N 44°16' E 008°27'0 0.0
2017-May-12 20:00N 44°16' E 008°27'0 0.0
2017-May-12 19:30N 44°16' E 008°27'0 0.0
2017-May-12 19:00N 44°16' E 008°27'0 0.0
2017-May-12 18:30N 44°16' E 008°27'0 0.0
2017-May-12 18:00N 44°16' E 008°27'0 0.0
2017-May-12 17:27N 44°16' E 008°27'0 0.0
2017-May-12 17:00N 44°16' E 008°27'0 0.0
2017-May-12 16:30N 44°16' E 008°27'0 0.0
2017-May-12 16:00N 44°16' E 008°27'0 0.0
2017-May-12 15:30N 44°16' E 008°27'0 0.0
2017-May-12 15:00N 44°16' E 008°27'0 0.0
2017-May-12 14:00N 44°16' E 008°27'0 0.0
2017-May-12 13:30N 44°16' E 008°27'0 0.0
2017-May-12 13:00N 44°16' E 008°27'0 0.0
2017-May-12 12:30N 44°16' E 008°27'0 0.0
2017-May-12 12:00N 44°16' E 008°27'0 0.0
2017-May-12 11:30N 44°16' E 008°27'0 0.0
2017-May-12 11:00N 44°16' E 008°27'0 0.0
2017-May-12 10:30N 44°16' E 008°27'0 0.0
2017-May-12 10:00N 44°16' E 008°27'0 0.0
2017-May-12 09:30N 44°16' E 008°27'0 0.0
2017-May-12 09:00N 44°16' E 008°27'0 0.0
2017-May-12 08:30N 44°16' E 008°27'0 0.0
2017-May-12 07:57N 44°16' E 008°27'0 0.0
2017-May-12 07:30N 44°16' E 008°27'0 0.0
2017-May-12 07:00N 44°16' E 008°27'0 0.0
2017-May-12 06:30N 44°16' E 008°27'0 0.0
2017-May-12 06:00N 44°16' E 008°27'0 0.0
2017-May-12 05:30N 44°16' E 008°27'0 0.0
2017-May-12 05:00N 44°16' E 008°27'0 0.0
2017-May-12 04:30N 44°16' E 008°27'0 0.0
2017-May-12 04:00N 44°16' E 008°27'0 0.0
2017-May-12 03:30N 44°16' E 008°27'0 0.0
2017-May-12 03:00N 44°16' E 008°27'0 0.0
2017-May-12 02:30N 44°16' E 008°27'0 0.0
2017-May-12 02:00N 44°16' E 008°27'0 0.0
2017-May-12 01:30N 44°16' E 008°27'0 0.0
2017-May-12 01:00N 44°16' E 008°27'0 0.0
2017-May-12 00:30N 44°16' E 008°27'0 0.8
2017-May-12 00:00N 44°16' E 008°27'3 6.9
2017-May-11 23:30N 44°14' E 008°31'918.3
2017-May-11 23:00N 44°06' E 008°25'1220.6
2017-May-11 22:26N 43°55' E 008°16'920.4
2017-May-11 22:00N 43°49' E 008°08'1020.3
2017-May-11 21:31N 43°42' E 007°58'1020.1
2017-May-11 21:00N 43°35' E 007°48'1020.4
2017-May-11 20:30N 43°27' E 007°38'1020.4
2017-May-11 20:00N 43°22' E 007°27'1020.5
2017-May-11 19:31N 43°15' E 007°16'1120.5
2017-May-11 19:00N 43°09' E 007°05'23820.9
2017-May-11 07:37N 40°29' E 003°09'220.7
2017-May-11 07:30N 40°27' E 003°07'1020.6
2017-May-11 07:00N 40°20' E 002°56'1020.7
2017-May-11 06:30N 40°14' E 002°46'1021.3
2017-May-11 06:00N 40°07' E 002°36'1121.1
2017-May-11 05:30N 39°60' E 002°25'1121.2
2017-May-11 05:00N 39°53' E 002°15'1121.2
2017-May-11 04:30N 39°46' E 002°05'1020.7
2017-May-11 04:00N 39°38' E 001°55'1020.8
2017-May-11 03:30N 39°31' E 001°45'1021.0
2017-May-11 03:00N 39°24' E 001°36'1121.3
2017-May-11 02:30N 39°17' E 001°26'1121.7
2017-May-11 02:00N 39°09' E 001°15'1621.6
2017-May-11 01:16N 38°58' E 001°01'921.5
2017-May-11 00:52N 38°52' E 000°53'1021.0
2017-May-11 00:24N 38°44' E 000°45'7820.8
2017-May-10 20:38N 37°44' W 000°19'321.3
2017-May-10 20:30N 37°42' W 000°22'1121.5
2017-May-10 20:00N 37°34' W 000°30'1121.6
2017-May-10 19:29N 37°27' W 000°41'1021.1
2017-May-10 19:00N 37°20' W 000°50'41217.1
2017-May-09 18:54N 37°37' W 009°29'820.9
2017-May-09 18:30N 37°46' W 009°28'1020.6
2017-May-09 18:00N 37°56' W 009°27'1020.7
2017-May-09 17:30N 38°06' W 009°26'1020.5
2017-May-09 17:00N 38°16' W 009°25'1020.3
2017-May-09 16:30N 38°27' W 009°24'1019.3
2017-May-09 16:00N 38°36' W 009°23'713.8
2017-May-09 15:30N 38°41' W 009°17'611.4
2017-May-09 15:00N 38°42' W 009°09'3 2.8
2017-May-09 13:56N 38°44' W 009°06'0 0.0
2017-May-09 13:26N 38°44' W 009°06'0 0.0
2017-May-09 12:58N 38°44' W 009°06'0 0.0
2017-May-09 12:28N 38°44' W 009°06'0 0.0
2017-May-09 11:58N 38°44' W 009°06'0 0.0
2017-May-09 11:22N 38°44' W 009°06'0 0.0
2017-May-09 10:58N 38°44' W 009°06'0 0.0
2017-May-09 10:28N 38°44' W 009°06'0 0.0
2017-May-09 09:52N 38°44' W 009°06'0 0.0
2017-May-09 09:28N 38°44' W 009°06'0 0.0
2017-May-09 08:58N 38°44' W 009°06'0 0.0
2017-May-09 08:20N 38°44' W 009°06'0 0.0
2017-May-09 07:58N 38°44' W 009°06'0 0.0
2017-May-09 07:28N 38°44' W 009°06'0 0.0
2017-May-09 06:58N 38°44' W 009°06'0 0.0
2017-May-09 06:28N 38°44' W 009°06'0 0.0
2017-May-09 05:58N 38°44' W 009°06'0 0.0
2017-May-09 05:26N 38°44' W 009°06'0 0.0
2017-May-09 04:58N 38°44' W 009°06'0 0.0
2017-May-09 04:28N 38°44' W 009°06'0 0.0
2017-May-09 03:52N 38°44' W 009°06'0 0.0
2017-May-09 03:28N 38°44' W 009°06'0 0.0
2017-May-09 02:58N 38°44' W 009°06'0 0.0
2017-May-09 02:30N 38°44' W 009°06'2 4.1
2017-May-09 02:00N 38°42' W 009°08'510.2
2017-May-09 01:30N 38°41' W 009°15'612.6
2017-May-09 01:00N 38°38' W 009°22'612.4
2017-May-09 00:30N 38°35' W 009°29'917.3
2017-May-09 00:00N 38°33' W 009°39'918.7
2017-May-08 23:31N 38°31' W 009°51'1019.2
2017-May-08 23:01N 38°29' W 010°03'1019.4
2017-May-08 22:31N 38°26' W 010°15'1019.4
2017-May-08 22:01N 38°24' W 010°27'1019.3
2017-May-08 21:30N 38°21' W 010°39'1019.2
2017-May-08 21:00N 38°18' W 010°50'1019.1
2017-May-08 20:30N 38°15' W 011°02'1319.1
2017-May-08 19:49N 38°12' W 011°18'719.2
2017-May-08 19:28N 38°10' W 011°26'1219.8
2017-May-08 18:51N 38°07' W 011°41'920.1
2017-May-08 18:25N 38°04' W 011°52'820.0
2017-May-08 18:00N 38°02' W 012°02'  
Track history (hours):
 
Tides and Currents Weather Stations Pressure Air Temp Water Temp Dewpoint Dewpoint Depression Visibility Wind Speed Wind Dir Waves Ship Positions

Cala Pula

Last reported at 2017-May-16 05:58 UTC. Time now 2017-May-25 14:21 UTC.
Position N 35°42' W 014°18'.
Warning: this ship's position is 9 days out of date.

Length 189 m; draft 7.1 m.

Type: Ship (hazmat cat A). MMSI: 247585000.

Date/timePositionNaut miles runAvg speedWind from/ knotsBaromVisibWave heightAir tempDewpointWater temp
2017-May-16 05:58N 35°42' W 014°18'7021.3
2017-May-16 02:43N 35°46' W 012°52'3621.0
2017-May-16 01:01N 35°49' W 012°09'022.6
2017-May-16 01:00N 35°49' W 012°08'1621.5
2017-May-16 00:16N 35°50' W 011°49'621.8
2017-May-16 00:00N 35°50' W 011°42'1422.0
2017-May-15 23:22N 35°51' W 011°25'821.6
2017-May-15 23:00N 35°52' W 011°15'1121.6
2017-May-15 22:30N 35°52' W 011°02'1121.7
2017-May-15 22:00N 35°53' W 010°48'1121.5
2017-May-15 21:30N 35°53' W 010°35'1121.4
2017-May-15 21:00N 35°53' W 010°22'1121.3
2017-May-15 20:30N 35°54' W 010°09'1121.2
2017-May-15 20:00N 35°54' W 009°56'1121.2
2017-May-15 19:30N 35°55' W 009°42'1121.4
2017-May-15 19:00N 35°55' W 009°29'1121.5
2017-May-15 18:30N 35°55' W 009°16'8321.3
2017-May-15 14:35N 35°57' W 007°33'221.4
2017-May-15 14:30N 35°57' W 007°31'5721.4
2017-May-15 11:51N 35°57' W 006°21'27420.1
2017-May-14 22:13N 37°19' W 000°55'621.4
2017-May-14 21:56N 37°23' W 000°49'1820.8
2017-May-14 21:03N 37°36' W 000°32'120.9
2017-May-14 21:00N 37°36' W 000°31'3220.9
2017-May-14 19:27N 38°03' W 000°07'1921.1
2017-May-14 18:33N 38°20' E 000°04'121.2
2017-May-14 18:30N 38°21' E 000°05'8621.3
2017-May-14 14:28N 39°39' E 000°48'2121.2
2017-May-14 13:29N 39°59' E 000°56'1021.3
2017-May-14 13:00N 40°09' E 000°59'1121.2
2017-May-14 12:30N 40°20' E 001°01'1121.3
2017-May-14 12:00N 40°30' E 001°04'1121.2
2017-May-14 11:30N 40°41' E 001°07'1020.8
2017-May-14 11:01N 40°51' E 001°09'1019.2
2017-May-14 10:30N 41°00' E 001°12'195 9.9
2017-May-13 14:43N 42°20' E 005°11'2620.4
2017-May-13 13:27N 42°32' E 005°41'6719.6
2017-May-13 10:04N 43°08' E 006°58'419.3
2017-May-13 09:52N 43°10' E 007°02'719.2
2017-May-13 09:30N 43°15' E 007°09'1019.2
2017-May-13 09:00N 43°21' E 007°20'1019.1
2017-May-13 08:31N 43°27' E 007°30'918.7
2017-May-13 08:00N 43°33' E 007°40'918.5
2017-May-13 07:30N 43°38' E 007°50'918.2
2017-May-13 07:00N 43°44' E 007°60'1017.8
2017-May-13 06:27N 43°50' E 008°10'1417.3
2017-May-13 05:38N 44°02' E 008°22'216.9
2017-May-13 05:30N 44°04' E 008°24'815.6
2017-May-13 05:00N 44°11' E 008°29'611.2
2017-May-13 04:30N 44°16' E 008°28'1 1.3
2017-May-13 04:00N 44°16' E 008°27'0 0.0
2017-May-13 03:30N 44°16' E 008°27'0 0.0
2017-May-13 03:00N 44°16' E 008°27'0 0.0
2017-May-13 02:30N 44°16' E 008°27'0 0.0
2017-May-13 02:00N 44°16' E 008°27'0 0.0
2017-May-13 01:30N 44°16' E 008°27'0 0.0
2017-May-13 01:00N 44°16' E 008°27'0 0.0
2017-May-13 00:30N 44°16' E 008°27'0 0.0
2017-May-13 00:00N 44°16' E 008°27'0 0.0
2017-May-12 23:30N 44°16' E 008°27'0 0.0
2017-May-12 23:00N 44°16' E 008°27'0 0.0
2017-May-12 22:30N 44°16' E 008°27'0 0.0
2017-May-12 22:00N 44°16' E 008°27'0 0.0
2017-May-12 21:30N 44°16' E 008°27'0 0.0
2017-May-12 21:00N 44°16' E 008°27'0 0.0
2017-May-12 20:30N 44°16' E 008°27'0 0.0
2017-May-12 20:00N 44°16' E 008°27'0 0.0
2017-May-12 19:30N 44°16' E 008°27'0 0.0
2017-May-12 19:00N 44°16' E 008°27'0 0.0
2017-May-12 18:30N 44°16' E 008°27'0 0.0
2017-May-12 18:00N 44°16' E 008°27'0 0.0
2017-May-12 17:27N 44°16' E 008°27'0 0.0
2017-May-12 17:00N 44°16' E 008°27'0 0.0
2017-May-12 16:30N 44°16' E 008°27'0 0.0
2017-May-12 16:00N 44°16' E 008°27'0 0.0
2017-May-12 15:30N 44°16' E 008°27'0 0.0
2017-May-12 15:00N 44°16' E 008°27'0 0.0
2017-May-12 14:00N 44°16' E 008°27'0 0.0
2017-May-12 13:30N 44°16' E 008°27'0 0.0
2017-May-12 13:00N 44°16' E 008°27'0 0.0
2017-May-12 12:30N 44°16' E 008°27'0 0.0
2017-May-12 12:00N 44°16' E 008°27'0 0.0
2017-May-12 11:30N 44°16' E 008°27'0 0.0
2017-May-12 11:00N 44°16' E 008°27'0 0.0
2017-May-12 10:30N 44°16' E 008°27'0 0.0
2017-May-12 10:00N 44°16' E 008°27'0 0.0
2017-May-12 09:30N 44°16' E 008°27'0 0.0
2017-May-12 09:00N 44°16' E 008°27'0 0.0
2017-May-12 08:30N 44°16' E 008°27'0 0.0
2017-May-12 07:57N 44°16' E 008°27'0 0.0
2017-May-12 07:30N 44°16' E 008°27'0 0.0
2017-May-12 07:00N 44°16' E 008°27'0 0.0
2017-May-12 06:30N 44°16' E 008°27'0 0.0
2017-May-12 06:00N 44°16' E 008°27'0 0.0
2017-May-12 05:30N 44°16' E 008°27'0 0.0
2017-May-12 05:00N 44°16' E 008°27'0 0.0
2017-May-12 04:30N 44°16' E 008°27'0 0.0
2017-May-12 04:00N 44°16' E 008°27'0 0.0
2017-May-12 03:30N 44°16' E 008°27'0 0.0
2017-May-12 03:00N 44°16' E 008°27'0 0.0
2017-May-12 02:30N 44°16' E 008°27'0 0.0
2017-May-12 02:00N 44°16' E 008°27'0 0.0
2017-May-12 01:30N 44°16' E 008°27'0 0.0
2017-May-12 01:00N 44°16' E 008°27'0 0.0
2017-May-12 00:30N 44°16' E 008°27'0 0.8
2017-May-12 00:00N 44°16' E 008°27'3 6.9
2017-May-11 23:30N 44°14' E 008°31'918.3
2017-May-11 23:00N 44°06' E 008°25'1220.6
2017-May-11 22:26N 43°55' E 008°16'920.4
2017-May-11 22:00N 43°49' E 008°08'1020.3
2017-May-11 21:31N 43°42' E 007°58'1020.1
2017-May-11 21:00N 43°35' E 007°48'1020.4
2017-May-11 20:30N 43°27' E 007°38'1020.4
2017-May-11 20:00N 43°22' E 007°27'1020.5
2017-May-11 19:31N 43°15' E 007°16'1120.5
2017-May-11 19:00N 43°09' E 007°05'23820.9
2017-May-11 07:37N 40°29' E 003°09'220.7
2017-May-11 07:30N 40°27' E 003°07'1020.6
2017-May-11 07:00N 40°20' E 002°56'1020.7
2017-May-11 06:30N 40°14' E 002°46'1021.3
2017-May-11 06:00N 40°07' E 002°36'1121.1
2017-May-11 05:30N 39°60' E 002°25'1121.2
2017-May-11 05:00N 39°53' E 002°15'1121.2
2017-May-11 04:30N 39°46' E 002°05'1020.7
2017-May-11 04:00N 39°38' E 001°55'1020.8
2017-May-11 03:30N 39°31' E 001°45'1021.0
2017-May-11 03:00N 39°24' E 001°36'1121.3
2017-May-11 02:30N 39°17' E 001°26'1121.7
2017-May-11 02:00N 39°09' E 001°15'1621.6
2017-May-11 01:16N 38°58' E 001°01'921.5
2017-May-11 00:52N 38°52' E 000°53'1021.0
2017-May-11 00:24N 38°44' E 000°45'7820.8
2017-May-10 20:38N 37°44' W 000°19'321.3
2017-May-10 20:30N 37°42' W 000°22'1121.5
2017-May-10 20:00N 37°34' W 000°30'1121.6
2017-May-10 19:29N 37°27' W 000°41'1021.1
2017-May-10 19:00N 37°20' W 000°50'41217.1
2017-May-09 18:54N 37°37' W 009°29'820.9
2017-May-09 18:30N 37°46' W 009°28'1020.6
2017-May-09 18:00N 37°56' W 009°27'1020.7
2017-May-09 17:30N 38°06' W 009°26'1020.5
2017-May-09 17:00N 38°16' W 009°25'1020.3
2017-May-09 16:30N 38°27' W 009°24'1019.3
2017-May-09 16:00N 38°36' W 009°23'713.8
2017-May-09 15:30N 38°41' W 009°17'611.4
2017-May-09 15:00N 38°42' W 009°09'3 2.8
2017-May-09 13:56N 38°44' W 009°06'0 0.0
2017-May-09 13:26N 38°44' W 009°06'0 0.0
2017-May-09 12:58N 38°44' W 009°06'0 0.0
2017-May-09 12:28N 38°44' W 009°06'0 0.0
2017-May-09 11:58N 38°44' W 009°06'0 0.0
2017-May-09 11:22N 38°44' W 009°06'0 0.0
2017-May-09 10:58N 38°44' W 009°06'0 0.0
2017-May-09 10:28N 38°44' W 009°06'0 0.0
2017-May-09 09:52N 38°44' W 009°06'0 0.0
2017-May-09 09:28N 38°44' W 009°06'0 0.0
2017-May-09 08:58N 38°44' W 009°06'0 0.0
2017-May-09 08:20N 38°44' W 009°06'0 0.0
2017-May-09 07:58N 38°44' W 009°06'0 0.0
2017-May-09 07:28N 38°44' W 009°06'0 0.0
2017-May-09 06:58N 38°44' W 009°06'0 0.0
2017-May-09 06:28N 38°44' W 009°06'0 0.0
2017-May-09 05:58N 38°44' W 009°06'0 0.0
2017-May-09 05:26N 38°44' W 009°06'0 0.0
2017-May-09 04:58N 38°44' W 009°06'0 0.0
2017-May-09 04:28N 38°44' W 009°06'0 0.0
2017-May-09 03:52N 38°44' W 009°06'0 0.0
2017-May-09 03:28N 38°44' W 009°06'0 0.0
2017-May-09 02:58N 38°44' W 009°06'0 0.0
2017-May-09 02:30N 38°44' W 009°06'2 4.1
2017-May-09 02:00N 38°42' W 009°08'510.2
2017-May-09 01:30N 38°41' W 009°15'612.6
2017-May-09 01:00N 38°38' W 009°22'612.4
2017-May-09 00:30N 38°35' W 009°29'917.3
2017-May-09 00:00N 38°33' W 009°39'918.7
2017-May-08 23:31N 38°31' W 009°51'1019.2
2017-May-08 23:01N 38°29' W 010°03'1019.4
2017-May-08 22:31N 38°26' W 010°15'1019.4
2017-May-08 22:01N 38°24' W 010°27'1019.3
2017-May-08 21:30N 38°21' W 010°39'1019.2
2017-May-08 21:00N 38°18' W 010°50'1019.1
2017-May-08 20:30N 38°15' W 011°02'1319.1
2017-May-08 19:49N 38°12' W 011°18'719.2
2017-May-08 19:28N 38°10' W 011°26'1219.8
2017-May-08 18:51N 38°07' W 011°41'920.1
2017-May-08 18:25N 38°04' W 011°52'820.0
2017-May-08 18:00N 38°02' W 012°02'  

Dump ship's entire track history